sensor_id;sensor_type;location;lat;lon;timestamp;P1;durP1;ratioP1;P2;durP2;ratioP2
46931;SDS011;32670;51.464;11.964;2023-05-14T00:00:32;2.37;;;1.10;;
46931;SDS011;32670;51.464;11.964;2023-05-14T00:02:58;1.00;;;1.00;;
46931;SDS011;32670;51.464;11.964;2023-05-14T00:05:23;1.83;;;0.93;;
46931;SDS011;32670;51.464;11.964;2023-05-14T00:07:49;1.20;;;1.10;;
46931;SDS011;32670;51.464;11.964;2023-05-14T00:10:14;0.97;;;0.97;;
46931;SDS011;32670;51.464;11.964;2023-05-14T00:12:41;1.00;;;1.00;;
46931;SDS011;32670;51.464;11.964;2023-05-14T00:15:07;1.37;;;1.00;;
46931;SDS011;32670;51.464;11.964;2023-05-14T00:17:32;1.23;;;1.00;;
46931;SDS011;32670;51.464;11.964;2023-05-14T00:19:58;2.20;;;1.00;;
46931;SDS011;32670;51.464;11.964;2023-05-14T00:22:23;1.10;;;1.00;;
46931;SDS011;32670;51.464;11.964;2023-05-14T00:24:49;1.00;;;1.00;;
46931;SDS011;32670;51.464;11.964;2023-05-14T00:27:14;0.90;;;0.90;;
46931;SDS011;32670;51.464;11.964;2023-05-14T00:29:40;1.90;;;0.90;;
46931;SDS011;32670;51.464;11.964;2023-05-14T00:32:05;1.00;;;1.00;;
46931;SDS011;32670;51.464;11.964;2023-05-14T00:34:31;1.00;;;0.90;;
46931;SDS011;32670;51.464;11.964;2023-05-14T00:36:56;0.90;;;0.90;;
46931;SDS011;32670;51.464;11.964;2023-05-14T00:39:22;1.10;;;1.10;;
46931;SDS011;32670;51.464;11.964;2023-05-14T00:41:47;1.20;;;1.10;;
46931;SDS011;32670;51.464;11.964;2023-05-14T00:44:13;1.53;;;1.10;;
46931;SDS011;32670;51.464;11.964;2023-05-14T00:46:38;1.20;;;1.10;;
46931;SDS011;32670;51.464;11.964;2023-05-14T00:49:04;1.23;;;1.10;;
46931;SDS011;32670;51.464;11.964;2023-05-14T00:51:29;1.37;;;1.00;;
46931;SDS011;32670;51.464;11.964;2023-05-14T00:53:55;0.90;;;0.90;;
46931;SDS011;32670;51.464;11.964;2023-05-14T00:56:21;1.20;;;1.10;;
46931;SDS011;32670;51.464;11.964;2023-05-14T00:58:46;4.27;;;1.20;;
46931;SDS011;32670;51.464;11.964;2023-05-14T01:01:12;1.10;;;1.00;;
46931;SDS011;32670;51.464;11.964;2023-05-14T01:03:39;1.53;;;1.03;;
46931;SDS011;32670;51.464;11.964;2023-05-14T01:06:09;2.33;;;1.07;;
46931;SDS011;32670;51.464;11.964;2023-05-14T01:08:58;1.00;;;1.00;;
46931;SDS011;32670;51.464;11.964;2023-05-14T01:11:35;1.20;;;1.07;;
46931;SDS011;32670;51.464;11.964;2023-05-14T01:14:12;1.20;;;1.10;;
46931;SDS011;32670;51.464;11.964;2023-05-14T01:16:45;1.10;;;1.10;;
46931;SDS011;32670;51.464;11.964;2023-05-14T01:19:22;1.10;;;1.00;;
46931;SDS011;32670;51.464;11.964;2023-05-14T01:21:57;0.80;;;0.80;;
46931;SDS011;32670;51.464;11.964;2023-05-14T01:24:22;2.30;;;1.10;;
46931;SDS011;32670;51.464;11.964;2023-05-14T01:26:48;1.40;;;1.20;;
46931;SDS011;32670;51.464;11.964;2023-05-14T01:29:15;1.80;;;1.10;;
46931;SDS011;32670;51.464;11.964;2023-05-14T01:31:46;1.67;;;1.20;;
46931;SDS011;32670;51.464;11.964;2023-05-14T01:34:13;1.10;;;0.93;;
46931;SDS011;32670;51.464;11.964;2023-05-14T01:36:39;2.20;;;1.00;;
46931;SDS011;32670;51.464;11.964;2023-05-14T01:39:05;1.20;;;1.10;;
46931;SDS011;32670;51.464;11.964;2023-05-14T01:41:35;3.03;;;1.10;;
46931;SDS011;32670;51.464;11.964;2023-05-14T01:44:03;2.83;;;1.10;;
46931;SDS011;32670;51.464;11.964;2023-05-14T01:46:32;1.13;;;1.00;;
46931;SDS011;32670;51.464;11.964;2023-05-14T01:48:58;1.97;;;1.13;;
46931;SDS011;32670;51.464;11.964;2023-05-14T01:51:24;1.67;;;1.10;;
46931;SDS011;32670;51.464;11.964;2023-05-14T01:53:49;1.17;;;1.07;;
46931;SDS011;32670;51.464;11.964;2023-05-14T01:56:15;3.53;;;1.27;;
46931;SDS011;32670;51.464;11.964;2023-05-14T01:58:41;1.20;;;1.10;;
46931;SDS011;32670;51.464;11.964;2023-05-14T02:01:06;1.60;;;0.90;;
46931;SDS011;32670;51.464;11.964;2023-05-14T02:03:32;1.53;;;1.10;;
46931;SDS011;32670;51.464;11.964;2023-05-14T02:05:57;4.00;;;1.10;;
46931;SDS011;32670;51.464;11.964;2023-05-14T02:08:22;1.67;;;1.10;;
46931;SDS011;32670;51.464;11.964;2023-05-14T02:10:48;1.27;;;1.00;;
46931;SDS011;32670;51.464;11.964;2023-05-14T02:13:13;1.00;;;0.90;;
46931;SDS011;32670;51.464;11.964;2023-05-14T02:15:39;1.40;;;1.10;;
46931;SDS011;32670;51.464;11.964;2023-05-14T02:18:04;1.00;;;0.80;;
46931;SDS011;32670;51.464;11.964;2023-05-14T02:20:30;2.40;;;1.00;;
46931;SDS011;32670;51.464;11.964;2023-05-14T02:22:55;1.43;;;1.03;;
46931;SDS011;32670;51.464;11.964;2023-05-14T02:25:21;0.90;;;0.90;;
46931;SDS011;32670;51.464;11.964;2023-05-14T02:27:46;2.07;;;1.10;;
46931;SDS011;32670;51.464;11.964;2023-05-14T02:30:12;4.63;;;1.10;;
46931;SDS011;32670;51.464;11.964;2023-05-14T02:32:37;1.00;;;1.00;;
46931;SDS011;32670;51.464;11.964;2023-05-14T02:35:03;0.90;;;0.90;;
46931;SDS011;32670;51.464;11.964;2023-05-14T02:37:28;1.10;;;1.00;;
46931;SDS011;32670;51.464;11.964;2023-05-14T02:39:54;1.07;;;1.07;;
46931;SDS011;32670;51.464;11.964;2023-05-14T02:42:19;1.17;;;1.07;;
46931;SDS011;32670;51.464;11.964;2023-05-14T02:44:45;1.10;;;1.00;;
46931;SDS011;32670;51.464;11.964;2023-05-14T02:47:10;1.27;;;1.00;;
46931;SDS011;32670;51.464;11.964;2023-05-14T02:49:36;1.23;;;1.13;;
46931;SDS011;32670;51.464;11.964;2023-05-14T02:52:01;1.10;;;0.90;;
46931;SDS011;32670;51.464;11.964;2023-05-14T02:54:27;1.50;;;1.20;;
46931;SDS011;32670;51.464;11.964;2023-05-14T02:56:52;2.20;;;1.30;;
46931;SDS011;32670;51.464;11.964;2023-05-14T02:59:18;1.77;;;1.10;;
46931;SDS011;32670;51.464;11.964;2023-05-14T03:01:43;1.00;;;1.00;;
46931;SDS011;32670;51.464;11.964;2023-05-14T03:04:09;0.90;;;0.90;;
46931;SDS011;32670;51.464;11.964;2023-05-14T03:06:34;3.43;;;1.20;;
46931;SDS011;32670;51.464;11.964;2023-05-14T03:09:00;1.20;;;1.10;;
46931;SDS011;32670;51.464;11.964;2023-05-14T03:11:26;1.10;;;1.00;;
46931;SDS011;32670;51.464;11.964;2023-05-14T03:13:52;1.30;;;1.20;;
46931;SDS011;32670;51.464;11.964;2023-05-14T03:16:17;1.10;;;1.00;;
46931;SDS011;32670;51.464;11.964;2023-05-14T03:18:42;1.97;;;1.20;;
46931;SDS011;32670;51.464;11.964;2023-05-14T03:21:08;1.00;;;1.00;;
46931;SDS011;32670;51.464;11.964;2023-05-14T03:23:34;2.17;;;1.27;;
46931;SDS011;32670;51.464;11.964;2023-05-14T03:26:00;1.00;;;1.00;;
46931;SDS011;32670;51.464;11.964;2023-05-14T03:28:26;1.13;;;1.10;;
46931;SDS011;32670;51.464;11.964;2023-05-14T03:30:51;1.20;;;1.10;;
46931;SDS011;32670;51.464;11.964;2023-05-14T03:33:17;1.03;;;1.00;;
46931;SDS011;32670;51.464;11.964;2023-05-14T03:35:42;2.00;;;1.30;;
46931;SDS011;32670;51.464;11.964;2023-05-14T03:38:08;1.40;;;1.30;;
46931;SDS011;32670;51.464;11.964;2023-05-14T03:40:33;1.20;;;1.10;;
46931;SDS011;32670;51.464;11.964;2023-05-14T03:42:59;1.20;;;1.10;;
46931;SDS011;32670;51.464;11.964;2023-05-14T03:45:24;1.07;;;1.07;;
46931;SDS011;32670;51.464;11.964;2023-05-14T03:47:52;0.90;;;0.90;;
46931;SDS011;32670;51.464;11.964;2023-05-14T03:50:17;1.00;;;1.00;;
46931;SDS011;32670;51.464;11.964;2023-05-14T03:52:43;1.13;;;1.13;;
46931;SDS011;32670;51.464;11.964;2023-05-14T03:55:09;2.90;;;1.27;;
46931;SDS011;32670;51.464;11.964;2023-05-14T03:57:35;1.53;;;1.07;;
46931;SDS011;32670;51.464;11.964;2023-05-14T04:00:01;1.60;;;1.10;;
46931;SDS011;32670;51.464;11.964;2023-05-14T04:02:27;3.40;;;0.93;;
46931;SDS011;32670;51.464;11.964;2023-05-14T04:04:52;1.30;;;1.20;;
46931;SDS011;32670;51.464;11.964;2023-05-14T04:07:18;1.30;;;1.10;;
46931;SDS011;32670;51.464;11.964;2023-05-14T04:09:43;1.23;;;1.10;;
46931;SDS011;32670;51.464;11.964;2023-05-14T04:12:09;6.53;;;1.10;;
46931;SDS011;32670;51.464;11.964;2023-05-14T04:14:34;1.20;;;1.10;;
46931;SDS011;32670;51.464;11.964;2023-05-14T04:17:00;1.73;;;1.20;;
46931;SDS011;32670;51.464;11.964;2023-05-14T04:19:25;2.37;;;1.20;;
46931;SDS011;32670;51.464;11.964;2023-05-14T04:21:50;1.37;;;1.27;;
46931;SDS011;32670;51.464;11.964;2023-05-14T04:24:16;1.93;;;1.10;;
46931;SDS011;32670;51.464;11.964;2023-05-14T04:26:41;1.00;;;1.00;;
46931;SDS011;32670;51.464;11.964;2023-05-14T04:29:07;1.37;;;1.27;;
46931;SDS011;32670;51.464;11.964;2023-05-14T04:31:32;0.93;;;0.93;;
46931;SDS011;32670;51.464;11.964;2023-05-14T04:33:58;1.20;;;1.10;;
46931;SDS011;32670;51.464;11.964;2023-05-14T04:36:23;1.87;;;1.00;;
46931;SDS011;32670;51.464;11.964;2023-05-14T04:38:49;1.50;;;1.40;;
46931;SDS011;32670;51.464;11.964;2023-05-14T04:41:14;1.10;;;1.10;;
46931;SDS011;32670;51.464;11.964;2023-05-14T04:43:40;1.40;;;1.20;;
46931;SDS011;32670;51.464;11.964;2023-05-14T04:46:05;2.63;;;1.20;;
46931;SDS011;32670;51.464;11.964;2023-05-14T04:48:30;1.03;;;1.00;;
46931;SDS011;32670;51.464;11.964;2023-05-14T04:50:56;2.23;;;0.93;;
46931;SDS011;32670;51.464;11.964;2023-05-14T04:53:22;1.33;;;1.23;;
46931;SDS011;32670;51.464;11.964;2023-05-14T04:55:48;1.30;;;1.27;;
46931;SDS011;32670;51.464;11.964;2023-05-14T04:58:13;1.10;;;1.10;;
46931;SDS011;32670;51.464;11.964;2023-05-14T05:00:39;1.30;;;1.10;;
46931;SDS011;32670;51.464;11.964;2023-05-14T05:03:04;0.90;;;0.90;;
46931;SDS011;32670;51.464;11.964;2023-05-14T05:05:30;1.63;;;1.10;;
46931;SDS011;32670;51.464;11.964;2023-05-14T05:07:55;1.03;;;1.03;;
46931;SDS011;32670;51.464;11.964;2023-05-14T05:10:21;1.43;;;1.33;;
46931;SDS011;32670;51.464;11.964;2023-05-14T05:12:46;1.10;;;1.10;;
46931;SDS011;32670;51.464;11.964;2023-05-14T05:15:12;1.03;;;1.03;;
46931;SDS011;32670;51.464;11.964;2023-05-14T05:17:37;1.63;;;1.20;;
46931;SDS011;32670;51.464;11.964;2023-05-14T05:20:03;1.93;;;1.23;;
46931;SDS011;32670;51.464;11.964;2023-05-14T05:22:31;1.10;;;1.00;;
46931;SDS011;32670;51.464;11.964;2023-05-14T05:24:57;2.20;;;1.27;;
46931;SDS011;32670;51.464;11.964;2023-05-14T05:27:23;2.70;;;1.20;;
46931;SDS011;32670;51.464;11.964;2023-05-14T05:29:50;1.30;;;1.20;;
46931;SDS011;32670;51.464;11.964;2023-05-14T05:32:15;1.17;;;1.10;;
46931;SDS011;32670;51.464;11.964;2023-05-14T05:34:40;1.00;;;1.00;;
46931;SDS011;32670;51.464;11.964;2023-05-14T05:37:06;1.40;;;1.17;;
46931;SDS011;32670;51.464;11.964;2023-05-14T05:39:33;1.10;;;1.00;;
46931;SDS011;32670;51.464;11.964;2023-05-14T05:41:59;1.83;;;1.00;;
46931;SDS011;32670;51.464;11.964;2023-05-14T05:44:25;2.03;;;1.10;;
46931;SDS011;32670;51.464;11.964;2023-05-14T05:46:51;1.30;;;1.20;;
46931;SDS011;32670;51.464;11.964;2023-05-14T05:49:16;1.23;;;1.07;;
46931;SDS011;32670;51.464;11.964;2023-05-14T05:51:41;2.03;;;1.20;;
46931;SDS011;32670;51.464;11.964;2023-05-14T05:54:07;5.73;;;1.13;;
46931;SDS011;32670;51.464;11.964;2023-05-14T05:56:32;2.30;;;1.20;;
46931;SDS011;32670;51.464;11.964;2023-05-14T05:58:58;6.30;;;1.37;;
46931;SDS011;32670;51.464;11.964;2023-05-14T06:01:23;4.13;;;1.33;;
46931;SDS011;32670;51.464;11.964;2023-05-14T06:03:49;4.27;;;1.40;;
46931;SDS011;32670;51.464;11.964;2023-05-14T06:06:14;3.93;;;2.50;;
46931;SDS011;32670;51.464;11.964;2023-05-14T06:08:40;3.77;;;3.47;;
46931;SDS011;32670;51.464;11.964;2023-05-14T06:11:06;3.80;;;3.20;;
46931;SDS011;32670;51.464;11.964;2023-05-14T06:13:31;3.87;;;3.30;;
46931;SDS011;32670;51.464;11.964;2023-05-14T06:15:57;5.10;;;3.40;;
46931;SDS011;32670;51.464;11.964;2023-05-14T06:18:22;5.10;;;3.80;;
46931;SDS011;32670;51.464;11.964;2023-05-14T06:20:48;4.40;;;3.80;;
46931;SDS011;32670;51.464;11.964;2023-05-14T06:23:13;4.03;;;3.40;;
46931;SDS011;32670;51.464;11.964;2023-05-14T06:25:39;5.87;;;3.60;;
46931;SDS011;32670;51.464;11.964;2023-05-14T06:28:04;4.03;;;3.60;;
46931;SDS011;32670;51.464;11.964;2023-05-14T06:30:29;4.00;;;3.60;;
46931;SDS011;32670;51.464;11.964;2023-05-14T06:32:55;4.13;;;3.40;;
46931;SDS011;32670;51.464;11.964;2023-05-14T06:35:20;4.30;;;3.90;;
46931;SDS011;32670;51.464;11.964;2023-05-14T06:37:47;3.60;;;3.30;;
46931;SDS011;32670;51.464;11.964;2023-05-14T06:40:12;3.70;;;3.40;;
46931;SDS011;32670;51.464;11.964;2023-05-14T06:42:39;3.70;;;3.40;;
46931;SDS011;32670;51.464;11.964;2023-05-14T06:45:05;4.00;;;3.50;;
46931;SDS011;32670;51.464;11.964;2023-05-14T06:47:31;3.70;;;3.40;;
46931;SDS011;32670;51.464;11.964;2023-05-14T06:49:57;3.80;;;3.50;;
46931;SDS011;32670;51.464;11.964;2023-05-14T06:52:23;3.47;;;3.10;;
46931;SDS011;32670;51.464;11.964;2023-05-14T06:54:49;4.10;;;3.23;;
46931;SDS011;32670;51.464;11.964;2023-05-14T06:57:15;4.20;;;3.40;;
46931;SDS011;32670;51.464;11.964;2023-05-14T06:59:40;3.73;;;3.37;;
46931;SDS011;32670;51.464;11.964;2023-05-14T07:02:05;3.80;;;3.50;;
46931;SDS011;32670;51.464;11.964;2023-05-14T07:04:31;4.10;;;3.80;;
46931;SDS011;32670;51.464;11.964;2023-05-14T07:06:56;4.47;;;3.80;;
46931;SDS011;32670;51.464;11.964;2023-05-14T07:09:22;4.60;;;3.40;;
46931;SDS011;32670;51.464;11.964;2023-05-14T07:11:47;3.80;;;3.40;;
46931;SDS011;32670;51.464;11.964;2023-05-14T07:14:13;4.20;;;3.40;;
46931;SDS011;32670;51.464;11.964;2023-05-14T07:16:38;8.70;;;3.70;;
46931;SDS011;32670;51.464;11.964;2023-05-14T07:19:05;3.63;;;3.17;;
46931;SDS011;32670;51.464;11.964;2023-05-14T07:21:30;8.43;;;3.70;;
46931;SDS011;32670;51.464;11.964;2023-05-14T07:23:56;6.10;;;3.30;;
46931;SDS011;32670;51.464;11.964;2023-05-14T07:26:22;3.50;;;3.20;;
46931;SDS011;32670;51.464;11.964;2023-05-14T07:28:48;3.37;;;3.13;;
46931;SDS011;32670;51.464;11.964;2023-05-14T07:31:13;4.83;;;3.40;;
46931;SDS011;32670;51.464;11.964;2023-05-14T07:33:39;4.83;;;3.70;;
46931;SDS011;32670;51.464;11.964;2023-05-14T07:36:05;6.23;;;3.70;;
46931;SDS011;32670;51.464;11.964;2023-05-14T07:38:30;3.87;;;3.50;;
46931;SDS011;32670;51.464;11.964;2023-05-14T07:40:56;3.70;;;3.40;;
46931;SDS011;32670;51.464;11.964;2023-05-14T07:43:22;3.57;;;3.30;;
46931;SDS011;32670;51.464;11.964;2023-05-14T07:45:47;4.10;;;3.80;;
46931;SDS011;32670;51.464;11.964;2023-05-14T07:48:13;4.57;;;3.50;;
46931;SDS011;32670;51.464;11.964;2023-05-14T07:50:38;4.43;;;3.40;;
46931;SDS011;32670;51.464;11.964;2023-05-14T07:53:04;4.30;;;3.83;;
46931;SDS011;32670;51.464;11.964;2023-05-14T07:55:30;4.00;;;3.63;;
46931;SDS011;32670;51.464;11.964;2023-05-14T07:57:55;3.47;;;3.17;;
46931;SDS011;32670;51.464;11.964;2023-05-14T08:00:20;3.80;;;3.50;;
46931;SDS011;32670;51.464;11.964;2023-05-14T08:02:46;3.53;;;3.23;;
46931;SDS011;32670;51.464;11.964;2023-05-14T08:05:13;3.93;;;3.20;;
46931;SDS011;32670;51.464;11.964;2023-05-14T08:07:38;3.60;;;3.30;;
46931;SDS011;32670;51.464;11.964;2023-05-14T08:10:04;3.93;;;3.57;;
46931;SDS011;32670;51.464;11.964;2023-05-14T08:12:31;3.73;;;3.43;;
46931;SDS011;32670;51.464;11.964;2023-05-14T08:14:57;3.27;;;3.00;;
46931;SDS011;32670;51.464;11.964;2023-05-14T08:17:22;3.20;;;2.90;;
46931;SDS011;32670;51.464;11.964;2023-05-14T08:19:48;3.00;;;2.80;;
46931;SDS011;32670;51.464;11.964;2023-05-14T08:22:13;3.23;;;2.93;;
46931;SDS011;32670;51.464;11.964;2023-05-14T08:24:39;3.23;;;2.80;;
46931;SDS011;32670;51.464;11.964;2023-05-14T08:27:04;3.00;;;2.67;;
46931;SDS011;32670;51.464;11.964;2023-05-14T08:29:30;4.50;;;2.90;;
46931;SDS011;32670;51.464;11.964;2023-05-14T08:31:55;3.10;;;2.80;;
46931;SDS011;32670;51.464;11.964;2023-05-14T08:34:21;4.43;;;2.90;;
46931;SDS011;32670;51.464;11.964;2023-05-14T08:36:46;5.47;;;3.20;;
46931;SDS011;32670;51.464;11.964;2023-05-14T08:39:12;4.93;;;2.70;;
46931;SDS011;32670;51.464;11.964;2023-05-14T08:41:38;8.87;;;3.97;;
46931;SDS011;32670;51.464;11.964;2023-05-14T08:44:11;5.43;;;3.00;;
46931;SDS011;32670;51.464;11.964;2023-05-14T08:46:37;4.13;;;2.90;;
46931;SDS011;32670;51.464;11.964;2023-05-14T08:49:06;6.47;;;2.97;;
46931;SDS011;32670;51.464;11.964;2023-05-14T08:51:38;4.63;;;3.13;;
46931;SDS011;32670;51.464;11.964;2023-05-14T08:54:04;4.17;;;2.83;;
46931;SDS011;32670;51.464;11.964;2023-05-14T08:56:31;4.73;;;2.80;;
46931;SDS011;32670;51.464;11.964;2023-05-14T08:58:57;4.33;;;2.70;;
46931;SDS011;32670;51.464;11.964;2023-05-14T09:01:22;2.90;;;2.50;;
46931;SDS011;32670;51.464;11.964;2023-05-14T09:07:01;3.43;;;2.50;;
46931;SDS011;32670;51.464;11.964;2023-05-14T09:09:27;6.80;;;2.87;;
46931;SDS011;32670;51.464;11.964;2023-05-14T09:11:53;3.13;;;2.40;;
46931;SDS011;32670;51.464;11.964;2023-05-14T09:14:19;4.13;;;2.50;;
46931;SDS011;32670;51.464;11.964;2023-05-14T09:16:46;2.97;;;2.20;;
46931;SDS011;32670;51.464;11.964;2023-05-14T09:19:13;4.03;;;2.20;;
46931;SDS011;32670;51.464;11.964;2023-05-14T09:21:40;3.00;;;2.37;;
46931;SDS011;32670;51.464;11.964;2023-05-14T09:24:06;2.40;;;2.20;;
46931;SDS011;32670;51.464;11.964;2023-05-14T09:26:33;2.60;;;2.20;;
46931;SDS011;32670;51.464;11.964;2023-05-14T09:28:59;2.80;;;2.13;;
46931;SDS011;32670;51.464;11.964;2023-05-14T09:31:29;2.43;;;2.23;;
46931;SDS011;32670;51.464;11.964;2023-05-14T09:33:56;2.97;;;2.23;;
46931;SDS011;32670;51.464;11.964;2023-05-14T09:36:22;2.63;;;2.13;;
46931;SDS011;32670;51.464;11.964;2023-05-14T09:38:49;2.57;;;2.10;;
46931;SDS011;32670;51.464;11.964;2023-05-14T09:41:14;2.30;;;2.10;;
46931;SDS011;32670;51.464;11.964;2023-05-14T09:43:40;2.27;;;2.07;;
46931;SDS011;32670;51.464;11.964;2023-05-14T09:46:06;2.27;;;2.13;;
46931;SDS011;32670;51.464;11.964;2023-05-14T09:48:31;2.20;;;2.00;;
46931;SDS011;32670;51.464;11.964;2023-05-14T09:50:57;2.10;;;2.00;;
46931;SDS011;32670;51.464;11.964;2023-05-14T09:53:22;2.43;;;2.10;;
46931;SDS011;32670;51.464;11.964;2023-05-14T09:55:48;2.20;;;2.00;;
46931;SDS011;32670;51.464;11.964;2023-05-14T09:58:13;2.47;;;2.00;;
46931;SDS011;32670;51.464;11.964;2023-05-14T10:00:41;2.23;;;2.03;;
46931;SDS011;32670;51.464;11.964;2023-05-14T10:03:09;2.37;;;2.00;;
46931;SDS011;32670;51.464;11.964;2023-05-14T10:05:37;2.43;;;1.73;;
46931;SDS011;32670;51.464;11.964;2023-05-14T10:08:07;2.27;;;1.57;;
46931;SDS011;32670;51.464;11.964;2023-05-14T10:10:37;1.60;;;1.50;;
46931;SDS011;32670;51.464;11.964;2023-05-14T10:13:04;1.90;;;1.80;;
46931;SDS011;32670;51.464;11.964;2023-05-14T10:15:36;1.70;;;1.60;;
46931;SDS011;32670;51.464;11.964;2023-05-14T10:18:14;1.67;;;1.57;;
46931;SDS011;32670;51.464;11.964;2023-05-14T10:20:42;1.80;;;1.70;;
46931;SDS011;32670;51.464;11.964;2023-05-14T10:23:11;1.70;;;1.60;;
46931;SDS011;32670;51.464;11.964;2023-05-14T10:25:37;2.53;;;1.80;;
46931;SDS011;32670;51.464;11.964;2023-05-14T10:28:03;1.77;;;1.67;;
46931;SDS011;32670;51.464;11.964;2023-05-14T10:30:30;2.00;;;1.90;;
46931;SDS011;32670;51.464;11.964;2023-05-14T10:33:10;1.80;;;1.70;;
46931;SDS011;32670;51.464;11.964;2023-05-14T10:35:50;1.63;;;1.53;;
46931;SDS011;32670;51.464;11.964;2023-05-14T10:38:42;2.00;;;1.80;;
46931;SDS011;32670;51.464;11.964;2023-05-14T10:41:11;1.80;;;1.70;;
46931;SDS011;32670;51.464;11.964;2023-05-14T10:43:39;1.70;;;1.60;;
46931;SDS011;32670;51.464;11.964;2023-05-14T10:46:06;1.60;;;1.50;;
46931;SDS011;32670;51.464;11.964;2023-05-14T10:48:32;1.63;;;1.53;;
46931;SDS011;32670;51.464;11.964;2023-05-14T10:50:58;1.60;;;1.50;;
46931;SDS011;32670;51.464;11.964;2023-05-14T10:53:29;1.83;;;1.70;;
46931;SDS011;32670;51.464;11.964;2023-05-14T10:55:57;1.40;;;1.30;;
46931;SDS011;32670;51.464;11.964;2023-05-14T10:58:25;1.70;;;1.60;;
46931;SDS011;32670;51.464;11.964;2023-05-14T11:00:53;1.67;;;1.57;;
46931;SDS011;32670;51.464;11.964;2023-05-14T11:03:19;1.77;;;1.40;;
46931;SDS011;32670;51.464;11.964;2023-05-14T11:05:45;2.03;;;1.60;;
46931;SDS011;32670;51.464;11.964;2023-05-14T11:08:11;1.50;;;1.40;;
46931;SDS011;32670;51.464;11.964;2023-05-14T11:10:38;1.70;;;1.60;;
46931;SDS011;32670;51.464;11.964;2023-05-14T11:13:03;1.60;;;1.50;;
46931;SDS011;32670;51.464;11.964;2023-05-14T11:15:29;1.77;;;1.50;;
46931;SDS011;32670;51.464;11.964;2023-05-14T11:17:55;1.70;;;1.60;;
46931;SDS011;32670;51.464;11.964;2023-05-14T11:20:21;1.70;;;1.60;;
46931;SDS011;32670;51.464;11.964;2023-05-14T11:22:47;1.60;;;1.50;;
46931;SDS011;32670;51.464;11.964;2023-05-14T11:25:15;1.70;;;1.60;;
46931;SDS011;32670;51.464;11.964;2023-05-14T11:27:43;2.13;;;1.60;;
46931;SDS011;32670;51.464;11.964;2023-05-14T11:30:18;1.60;;;1.50;;
46931;SDS011;32670;51.464;11.964;2023-05-14T11:32:45;1.70;;;1.60;;
46931;SDS011;32670;51.464;11.964;2023-05-14T11:35:12;1.57;;;1.47;;
46931;SDS011;32670;51.464;11.964;2023-05-14T11:37:39;1.60;;;1.50;;
46931;SDS011;32670;51.464;11.964;2023-05-14T11:40:14;1.90;;;1.40;;
46931;SDS011;32670;51.464;11.964;2023-05-14T11:42:40;1.47;;;1.37;;
46931;SDS011;32670;51.464;11.964;2023-05-14T11:45:06;1.40;;;1.30;;
46931;SDS011;32670;51.464;11.964;2023-05-14T11:47:35;1.63;;;1.53;;
46931;SDS011;32670;51.464;11.964;2023-05-14T11:50:01;1.80;;;1.70;;
46931;SDS011;32670;51.464;11.964;2023-05-14T11:52:27;1.67;;;1.57;;
46931;SDS011;32670;51.464;11.964;2023-05-14T11:54:53;1.40;;;1.30;;
46931;SDS011;32670;51.464;11.964;2023-05-14T11:57:18;1.60;;;1.50;;
46931;SDS011;32670;51.464;11.964;2023-05-14T11:59:45;1.40;;;1.30;;
46931;SDS011;32670;51.464;11.964;2023-05-14T12:02:13;1.40;;;1.30;;
46931;SDS011;32670;51.464;11.964;2023-05-14T12:04:39;1.40;;;1.30;;
46931;SDS011;32670;51.464;11.964;2023-05-14T12:07:15;1.50;;;1.40;;
46931;SDS011;32670;51.464;11.964;2023-05-14T12:09:42;1.53;;;1.43;;
46931;SDS011;32670;51.464;11.964;2023-05-14T12:12:18;1.60;;;1.50;;
46931;SDS011;32670;51.464;11.964;2023-05-14T12:14:45;1.40;;;1.30;;
46931;SDS011;32670;51.464;11.964;2023-05-14T12:17:19;1.30;;;1.20;;
46931;SDS011;32670;51.464;11.964;2023-05-14T12:19:49;1.57;;;1.47;;
46931;SDS011;32670;51.464;11.964;2023-05-14T12:22:17;1.30;;;1.20;;
46931;SDS011;32670;51.464;11.964;2023-05-14T12:24:53;1.37;;;1.30;;
46931;SDS011;32670;51.464;11.964;2023-05-14T12:27:23;1.57;;;1.40;;
46931;SDS011;32670;51.464;11.964;2023-05-14T12:29:50;1.30;;;1.27;;
46931;SDS011;32670;51.464;11.964;2023-05-14T12:32:27;1.40;;;1.30;;
46931;SDS011;32670;51.464;11.964;2023-05-14T12:34:55;1.53;;;1.43;;
46931;SDS011;32670;51.464;11.964;2023-05-14T12:37:20;1.20;;;1.20;;
46931;SDS011;32670;51.464;11.964;2023-05-14T12:39:46;1.33;;;1.20;;
46931;SDS011;32670;51.464;11.964;2023-05-14T12:42:11;1.40;;;1.30;;
46931;SDS011;32670;51.464;11.964;2023-05-14T12:44:38;1.50;;;1.40;;
46931;SDS011;32670;51.464;11.964;2023-05-14T12:47:03;1.50;;;1.40;;
46931;SDS011;32670;51.464;11.964;2023-05-14T12:49:29;1.43;;;1.33;;
46931;SDS011;32670;51.464;11.964;2023-05-14T12:51:55;1.60;;;1.50;;
46931;SDS011;32670;51.464;11.964;2023-05-14T12:54:20;1.30;;;1.20;;
46931;SDS011;32670;51.464;11.964;2023-05-14T12:56:45;1.33;;;1.30;;
46931;SDS011;32670;51.464;11.964;2023-05-14T12:59:11;1.30;;;1.20;;
46931;SDS011;32670;51.464;11.964;2023-05-14T13:01:36;1.43;;;1.33;;
46931;SDS011;32670;51.464;11.964;2023-05-14T13:04:02;1.50;;;1.40;;
46931;SDS011;32670;51.464;11.964;2023-05-14T13:06:28;1.47;;;1.37;;
46931;SDS011;32670;51.464;11.964;2023-05-14T13:08:55;1.47;;;1.37;;
46931;SDS011;32670;51.464;11.964;2023-05-14T13:11:23;1.20;;;1.20;;
46931;SDS011;32670;51.464;11.964;2023-05-14T13:13:49;1.30;;;1.20;;
46931;SDS011;32670;51.464;11.964;2023-05-14T13:16:15;1.27;;;1.27;;
46931;SDS011;32670;51.464;11.964;2023-05-14T13:18:40;1.43;;;1.33;;
46931;SDS011;32670;51.464;11.964;2023-05-14T13:21:06;1.40;;;1.30;;
46931;SDS011;32670;51.464;11.964;2023-05-14T13:23:31;1.40;;;1.30;;
46931;SDS011;32670;51.464;11.964;2023-05-14T13:25:57;1.50;;;1.40;;
46931;SDS011;32670;51.464;11.964;2023-05-14T13:28:23;1.70;;;1.40;;
46931;SDS011;32670;51.464;11.964;2023-05-14T13:31:07;1.50;;;1.40;;
46931;SDS011;32670;51.464;11.964;2023-05-14T13:33:35;1.37;;;1.27;;
46931;SDS011;32670;51.464;11.964;2023-05-14T13:36:01;1.40;;;1.30;;
46931;SDS011;32670;51.464;11.964;2023-05-14T13:38:28;1.40;;;1.30;;
46931;SDS011;32670;51.464;11.964;2023-05-14T13:40:53;1.20;;;1.20;;
46931;SDS011;32670;51.464;11.964;2023-05-14T13:43:21;1.20;;;1.20;;
46931;SDS011;32670;51.464;11.964;2023-05-14T13:45:48;1.43;;;1.33;;
46931;SDS011;32670;51.464;11.964;2023-05-14T13:48:15;1.17;;;1.17;;
46931;SDS011;32670;51.464;11.964;2023-05-14T13:50:40;1.40;;;1.30;;
46931;SDS011;32670;51.464;11.964;2023-05-14T13:53:05;1.60;;;1.50;;
46931;SDS011;32670;51.464;11.964;2023-05-14T13:55:31;1.23;;;1.20;;
46931;SDS011;32670;51.464;11.964;2023-05-14T13:57:56;1.57;;;1.47;;
46931;SDS011;32670;51.464;11.964;2023-05-14T14:00:23;1.30;;;1.20;;
46931;SDS011;32670;51.464;11.964;2023-05-14T14:02:48;1.57;;;1.23;;
46931;SDS011;32670;51.464;11.964;2023-05-14T14:05:14;1.37;;;1.27;;
46931;SDS011;32670;51.464;11.964;2023-05-14T14:07:39;1.23;;;1.23;;
46931;SDS011;32670;51.464;11.964;2023-05-14T14:10:05;3.97;;;3.57;;
46931;SDS011;32670;51.464;11.964;2023-05-14T14:12:32;5.90;;;5.40;;
46931;SDS011;32670;51.464;11.964;2023-05-14T14:14:57;5.57;;;5.07;;
46931;SDS011;32670;51.464;11.964;2023-05-14T14:17:22;3.70;;;3.40;;
46931;SDS011;32670;51.464;11.964;2023-05-14T14:19:48;3.70;;;3.40;;
46931;SDS011;32670;51.464;11.964;2023-05-14T14:22:13;3.50;;;3.20;;
46931;SDS011;32670;51.464;11.964;2023-05-14T14:24:41;3.20;;;3.00;;
46931;SDS011;32670;51.464;11.964;2023-05-14T14:27:06;3.20;;;3.00;;
46931;SDS011;32670;51.464;11.964;2023-05-14T14:29:32;3.00;;;2.80;;
46931;SDS011;32670;51.464;11.964;2023-05-14T14:31:58;3.03;;;2.83;;